sensor_id;sensor_type;location;lat;lon;timestamp;P1;durP1;ratioP1;P2;durP2;ratioP2
6101;SDS011;3081;50.584;7.032;2022-08-01T00:01:56;10.80;;;1.73;;
6101;SDS011;3081;50.584;7.032;2022-08-01T00:04:23;9.43;;;1.60;;
6101;SDS011;3081;50.584;7.032;2022-08-01T00:06:50;10.73;;;2.10;;
6101;SDS011;3081;50.584;7.032;2022-08-01T00:09:18;10.00;;;2.17;;
6101;SDS011;3081;50.584;7.032;2022-08-01T00:11:45;9.27;;;1.33;;
6101;SDS011;3081;50.584;7.032;2022-08-01T00:14:12;10.17;;;1.83;;
6101;SDS011;3081;50.584;7.032;2022-08-01T00:16:39;9.77;;;1.53;;
6101;SDS011;3081;50.584;7.032;2022-08-01T00:19:06;11.03;;;1.90;;
6101;SDS011;3081;50.584;7.032;2022-08-01T00:21:33;11.20;;;2.30;;
6101;SDS011;3081;50.584;7.032;2022-08-01T00:24:00;10.17;;;2.00;;
6101;SDS011;3081;50.584;7.032;2022-08-01T00:26:28;9.60;;;1.60;;
6101;SDS011;3081;50.584;7.032;2022-08-01T00:28:55;11.20;;;1.80;;
6101;SDS011;3081;50.584;7.032;2022-08-01T00:31:22;11.30;;;1.73;;
6101;SDS011;3081;50.584;7.032;2022-08-01T00:33:49;9.47;;;1.70;;
6101;SDS011;3081;50.584;7.032;2022-08-01T00:36:16;9.77;;;1.60;;
6101;SDS011;3081;50.584;7.032;2022-08-01T00:38:43;9.27;;;1.43;;
6101;SDS011;3081;50.584;7.032;2022-08-01T00:41:10;9.93;;;1.90;;
6101;SDS011;3081;50.584;7.032;2022-08-01T00:43:38;13.73;;;2.00;;
6101;SDS011;3081;50.584;7.032;2022-08-01T00:46:05;9.90;;;1.70;;
6101;SDS011;3081;50.584;7.032;2022-08-01T00:48:32;9.30;;;1.70;;
6101;SDS011;3081;50.584;7.032;2022-08-01T00:50:59;9.37;;;1.73;;
6101;SDS011;3081;50.584;7.032;2022-08-01T00:53:26;9.70;;;1.80;;
6101;SDS011;3081;50.584;7.032;2022-08-01T00:55:53;9.80;;;1.97;;
6101;SDS011;3081;50.584;7.032;2022-08-01T00:58:20;10.20;;;1.90;;
6101;SDS011;3081;50.584;7.032;2022-08-01T01:00:49;12.20;;;2.03;;
6101;SDS011;3081;50.584;7.032;2022-08-01T01:03:16;10.27;;;1.90;;
6101;SDS011;3081;50.584;7.032;2022-08-01T01:05:45;11.50;;;2.00;;
6101;SDS011;3081;50.584;7.032;2022-08-01T01:08:21;9.73;;;2.03;;
6101;SDS011;3081;50.584;7.032;2022-08-01T01:10:54;9.77;;;1.70;;
6101;SDS011;3081;50.584;7.032;2022-08-01T01:13:26;9.53;;;1.90;;
6101;SDS011;3081;50.584;7.032;2022-08-01T01:16:01;8.93;;;1.70;;
6101;SDS011;3081;50.584;7.032;2022-08-01T01:18:32;9.53;;;2.00;;
6101;SDS011;3081;50.584;7.032;2022-08-01T01:21:03;9.70;;;2.00;;
6101;SDS011;3081;50.584;7.032;2022-08-01T01:23:45;9.93;;;2.20;;
6101;SDS011;3081;50.584;7.032;2022-08-01T01:26:27;9.63;;;2.10;;
6101;SDS011;3081;50.584;7.032;2022-08-01T01:29:05;10.20;;;2.13;;
6101;SDS011;3081;50.584;7.032;2022-08-01T01:31:40;10.07;;;2.00;;
6101;SDS011;3081;50.584;7.032;2022-08-01T01:34:11;9.50;;;2.33;;
6101;SDS011;3081;50.584;7.032;2022-08-01T01:36:41;10.17;;;2.00;;
6101;SDS011;3081;50.584;7.032;2022-08-01T01:39:10;9.23;;;1.83;;
6101;SDS011;3081;50.584;7.032;2022-08-01T01:41:39;9.30;;;2.30;;
6101;SDS011;3081;50.584;7.032;2022-08-01T01:44:08;11.57;;;2.20;;
6101;SDS011;3081;50.584;7.032;2022-08-01T01:49:14;10.23;;;2.60;;
6101;SDS011;3081;50.584;7.032;2022-08-01T01:51:42;13.03;;;2.60;;
6101;SDS011;3081;50.584;7.032;2022-08-01T01:54:10;9.30;;;2.30;;
6101;SDS011;3081;50.584;7.032;2022-08-01T01:56:37;10.97;;;2.10;;
6101;SDS011;3081;50.584;7.032;2022-08-01T01:59:16;10.00;;;2.67;;
6101;SDS011;3081;50.584;7.032;2022-08-01T02:01:46;10.37;;;2.60;;
6101;SDS011;3081;50.584;7.032;2022-08-01T02:04:16;9.37;;;2.27;;
6101;SDS011;3081;50.584;7.032;2022-08-01T02:06:44;10.40;;;2.50;;
6101;SDS011;3081;50.584;7.032;2022-08-01T02:09:14;8.83;;;1.90;;
6101;SDS011;3081;50.584;7.032;2022-08-01T02:11:42;9.17;;;2.33;;
6101;SDS011;3081;50.584;7.032;2022-08-01T02:14:10;10.30;;;2.70;;
6101;SDS011;3081;50.584;7.032;2022-08-01T02:16:40;11.30;;;3.10;;
6101;SDS011;3081;50.584;7.032;2022-08-01T02:19:10;10.50;;;2.40;;
6101;SDS011;3081;50.584;7.032;2022-08-01T02:21:39;9.73;;;2.63;;
6101;SDS011;3081;50.584;7.032;2022-08-01T02:24:12;12.03;;;2.60;;
6101;SDS011;3081;50.584;7.032;2022-08-01T02:26:41;9.30;;;2.30;;
6101;SDS011;3081;50.584;7.032;2022-08-01T02:29:13;11.17;;;2.67;;
6101;SDS011;3081;50.584;7.032;2022-08-01T02:31:47;10.00;;;2.63;;
6101;SDS011;3081;50.584;7.032;2022-08-01T02:34:17;11.67;;;2.80;;
6101;SDS011;3081;50.584;7.032;2022-08-01T02:36:46;10.23;;;2.53;;
6101;SDS011;3081;50.584;7.032;2022-08-01T02:39:15;9.67;;;2.20;;
6101;SDS011;3081;50.584;7.032;2022-08-01T02:41:46;9.77;;;2.73;;
6101;SDS011;3081;50.584;7.032;2022-08-01T02:44:15;10.53;;;2.00;;
6101;SDS011;3081;50.584;7.032;2022-08-01T02:46:51;9.20;;;2.40;;
6101;SDS011;3081;50.584;7.032;2022-08-01T02:49:21;8.90;;;2.27;;
6101;SDS011;3081;50.584;7.032;2022-08-01T02:51:51;10.60;;;2.33;;
6101;SDS011;3081;50.584;7.032;2022-08-01T02:54:20;9.07;;;2.17;;
6101;SDS011;3081;50.584;7.032;2022-08-01T02:56:49;9.40;;;2.70;;
6101;SDS011;3081;50.584;7.032;2022-08-01T02:59:18;9.70;;;2.33;;
6101;SDS011;3081;50.584;7.032;2022-08-01T03:01:51;9.63;;;2.30;;
6101;SDS011;3081;50.584;7.032;2022-08-01T03:04:21;9.40;;;2.50;;
6101;SDS011;3081;50.584;7.032;2022-08-01T03:06:49;9.23;;;2.13;;
6101;SDS011;3081;50.584;7.032;2022-08-01T03:09:19;10.33;;;2.50;;
6101;SDS011;3081;50.584;7.032;2022-08-01T03:11:48;9.67;;;3.20;;
6101;SDS011;3081;50.584;7.032;2022-08-01T03:14:15;10.63;;;3.63;;
6101;SDS011;3081;50.584;7.032;2022-08-01T03:16:46;9.70;;;2.67;;
6101;SDS011;3081;50.584;7.032;2022-08-01T03:19:15;11.70;;;2.73;;
6101;SDS011;3081;50.584;7.032;2022-08-01T03:21:45;12.80;;;3.57;;
6101;SDS011;3081;50.584;7.032;2022-08-01T03:24:15;9.63;;;2.87;;
6101;SDS011;3081;50.584;7.032;2022-08-01T03:26:44;10.37;;;3.83;;
6101;SDS011;3081;50.584;7.032;2022-08-01T03:29:12;8.90;;;3.50;;
6101;SDS011;3081;50.584;7.032;2022-08-01T03:31:43;9.77;;;3.63;;
6101;SDS011;3081;50.584;7.032;2022-08-01T03:34:12;11.17;;;3.60;;
6101;SDS011;3081;50.584;7.032;2022-08-01T03:36:42;13.23;;;3.87;;
6101;SDS011;3081;50.584;7.032;2022-08-01T03:39:12;10.50;;;4.07;;
6101;SDS011;3081;50.584;7.032;2022-08-01T03:41:41;9.20;;;3.90;;
6101;SDS011;3081;50.584;7.032;2022-08-01T03:44:13;9.63;;;3.47;;
6101;SDS011;3081;50.584;7.032;2022-08-01T03:46:42;9.93;;;3.77;;
6101;SDS011;3081;50.584;7.032;2022-08-01T03:49:14;8.93;;;3.33;;
6101;SDS011;3081;50.584;7.032;2022-08-01T03:51:46;9.97;;;3.73;;
6101;SDS011;3081;50.584;7.032;2022-08-01T03:54:16;9.97;;;4.13;;
6101;SDS011;3081;50.584;7.032;2022-08-01T03:56:46;8.50;;;3.63;;
6101;SDS011;3081;50.584;7.032;2022-08-01T03:59:14;10.03;;;3.80;;
6101;SDS011;3081;50.584;7.032;2022-08-01T04:01:43;11.63;;;3.80;;
6101;SDS011;3081;50.584;7.032;2022-08-01T04:04:11;8.60;;;3.20;;
6101;SDS011;3081;50.584;7.032;2022-08-01T04:06:38;10.25;;;4.00;;
6101;SDS011;3081;50.584;7.032;2022-08-01T04:09:07;8.20;;;3.73;;
6101;SDS011;3081;50.584;7.032;2022-08-01T04:11:34;10.67;;;4.23;;
6101;SDS011;3081;50.584;7.032;2022-08-01T04:14:02;9.83;;;3.80;;
6101;SDS011;3081;50.584;7.032;2022-08-01T04:16:29;14.97;;;4.17;;
6101;SDS011;3081;50.584;7.032;2022-08-01T04:18:56;10.00;;;4.43;;
6101;SDS011;3081;50.584;7.032;2022-08-01T04:21:23;9.40;;;3.93;;
6101;SDS011;3081;50.584;7.032;2022-08-01T04:23:53;11.07;;;4.10;;
6101;SDS011;3081;50.584;7.032;2022-08-01T04:26:25;9.20;;;4.17;;
6101;SDS011;3081;50.584;7.032;2022-08-01T04:28:53;9.87;;;4.90;;
6101;SDS011;3081;50.584;7.032;2022-08-01T04:31:22;10.77;;;4.60;;
6101;SDS011;3081;50.584;7.032;2022-08-01T04:33:51;8.73;;;4.23;;
6101;SDS011;3081;50.584;7.032;2022-08-01T04:36:22;9.93;;;4.33;;
6101;SDS011;3081;50.584;7.032;2022-08-01T04:38:50;10.80;;;5.30;;
6101;SDS011;3081;50.584;7.032;2022-08-01T04:41:22;13.03;;;4.70;;
6101;SDS011;3081;50.584;7.032;2022-08-01T04:43:51;9.13;;;5.40;;
6101;SDS011;3081;50.584;7.032;2022-08-01T04:46:19;8.90;;;4.83;;
6101;SDS011;3081;50.584;7.032;2022-08-01T04:48:46;9.90;;;4.70;;
6101;SDS011;3081;50.584;7.032;2022-08-01T04:51:14;10.73;;;4.90;;
6101;SDS011;3081;50.584;7.032;2022-08-01T04:53:42;16.10;;;5.33;;
6101;SDS011;3081;50.584;7.032;2022-08-01T04:56:11;10.63;;;4.57;;
6101;SDS011;3081;50.584;7.032;2022-08-01T04:58:38;12.87;;;5.07;;
6101;SDS011;3081;50.584;7.032;2022-08-01T05:01:07;10.23;;;4.80;;
6101;SDS011;3081;50.584;7.032;2022-08-01T05:03:35;12.10;;;6.10;;
6101;SDS011;3081;50.584;7.032;2022-08-01T05:06:02;8.90;;;5.30;;
6101;SDS011;3081;50.584;7.032;2022-08-01T05:08:29;15.30;;;5.20;;
6101;SDS011;3081;50.584;7.032;2022-08-01T05:10:56;9.67;;;4.50;;
6101;SDS011;3081;50.584;7.032;2022-08-01T05:13:23;9.63;;;5.30;;
6101;SDS011;3081;50.584;7.032;2022-08-01T05:15:50;9.60;;;5.23;;
6101;SDS011;3081;50.584;7.032;2022-08-01T05:18:20;11.17;;;5.47;;
6101;SDS011;3081;50.584;7.032;2022-08-01T05:20:46;9.10;;;5.10;;
6101;SDS011;3081;50.584;7.032;2022-08-01T05:23:13;9.33;;;4.77;;
6101;SDS011;3081;50.584;7.032;2022-08-01T05:25:40;10.80;;;5.00;;
6101;SDS011;3081;50.584;7.032;2022-08-01T05:28:07;12.47;;;5.17;;
6101;SDS011;3081;50.584;7.032;2022-08-01T05:30:34;9.93;;;5.30;;
6101;SDS011;3081;50.584;7.032;2022-08-01T05:33:01;10.53;;;5.60;;
6101;SDS011;3081;50.584;7.032;2022-08-01T05:35:30;10.30;;;5.40;;
6101;SDS011;3081;50.584;7.032;2022-08-01T05:37:57;8.73;;;4.80;;
6101;SDS011;3081;50.584;7.032;2022-08-01T05:40:23;11.23;;;5.87;;
6101;SDS011;3081;50.584;7.032;2022-08-01T05:42:50;12.40;;;5.33;;
6101;SDS011;3081;50.584;7.032;2022-08-01T05:45:18;8.70;;;4.30;;
6101;SDS011;3081;50.584;7.032;2022-08-01T05:47:45;11.10;;;4.90;;
6101;SDS011;3081;50.584;7.032;2022-08-01T05:50:12;10.40;;;4.93;;
6101;SDS011;3081;50.584;7.032;2022-08-01T05:52:40;9.83;;;4.80;;
6101;SDS011;3081;50.584;7.032;2022-08-01T05:55:07;12.03;;;5.97;;
6101;SDS011;3081;50.584;7.032;2022-08-01T05:57:35;12.80;;;5.90;;
6101;SDS011;3081;50.584;7.032;2022-08-01T06:00:02;11.93;;;5.40;;
6101;SDS011;3081;50.584;7.032;2022-08-01T06:02:30;13.17;;;5.90;;
6101;SDS011;3081;50.584;7.032;2022-08-01T06:04:57;11.40;;;5.93;;
6101;SDS011;3081;50.584;7.032;2022-08-01T06:07:24;14.27;;;6.50;;
6101;SDS011;3081;50.584;7.032;2022-08-01T06:09:52;14.63;;;6.97;;
6101;SDS011;3081;50.584;7.032;2022-08-01T06:12:19;11.83;;;6.10;;
6101;SDS011;3081;50.584;7.032;2022-08-01T06:14:46;11.37;;;5.93;;
6101;SDS011;3081;50.584;7.032;2022-08-01T06:17:13;12.80;;;6.63;;
6101;SDS011;3081;50.584;7.032;2022-08-01T06:19:40;14.07;;;7.10;;
6101;SDS011;3081;50.584;7.032;2022-08-01T06:22:07;11.90;;;7.00;;
6101;SDS011;3081;50.584;7.032;2022-08-01T06:24:34;12.77;;;7.00;;
6101;SDS011;3081;50.584;7.032;2022-08-01T06:27:03;15.83;;;7.80;;
6101;SDS011;3081;50.584;7.032;2022-08-01T06:29:30;14.33;;;6.30;;
6101;SDS011;3081;50.584;7.032;2022-08-01T06:31:57;14.00;;;7.20;;
6101;SDS011;3081;50.584;7.032;2022-08-01T06:34:24;15.10;;;7.53;;
6101;SDS011;3081;50.584;7.032;2022-08-01T06:36:51;18.93;;;8.53;;
6101;SDS011;3081;50.584;7.032;2022-08-01T06:39:18;15.17;;;8.63;;
6101;SDS011;3081;50.584;7.032;2022-08-01T06:41:45;13.30;;;7.70;;
6101;SDS011;3081;50.584;7.032;2022-08-01T06:44:13;13.07;;;7.60;;
6101;SDS011;3081;50.584;7.032;2022-08-01T06:46:40;15.23;;;8.80;;
6101;SDS011;3081;50.584;7.032;2022-08-01T06:49:07;16.40;;;8.50;;
6101;SDS011;3081;50.584;7.032;2022-08-01T06:51:34;16.37;;;7.90;;
6101;SDS011;3081;50.584;7.032;2022-08-01T06:54:01;14.50;;;8.43;;
6101;SDS011;3081;50.584;7.032;2022-08-01T06:56:28;12.93;;;7.30;;
6101;SDS011;3081;50.584;7.032;2022-08-01T06:58:55;15.30;;;7.07;;
6101;SDS011;3081;50.584;7.032;2022-08-01T07:01:27;14.27;;;7.65;;
6101;SDS011;3081;50.584;7.032;2022-08-01T07:03:54;14.07;;;6.77;;
6101;SDS011;3081;50.584;7.032;2022-08-01T07:06:22;13.60;;;6.30;;
6101;SDS011;3081;50.584;7.032;2022-08-01T07:08:49;12.30;;;5.90;;
6101;SDS011;3081;50.584;7.032;2022-08-01T07:11:16;13.80;;;6.07;;
6101;SDS011;3081;50.584;7.032;2022-08-01T07:13:43;15.23;;;7.27;;
6101;SDS011;3081;50.584;7.032;2022-08-01T07:16:11;15.70;;;5.87;;
6101;SDS011;3081;50.584;7.032;2022-08-01T07:18:40;13.33;;;6.50;;
6101;SDS011;3081;50.584;7.032;2022-08-01T07:21:07;13.73;;;6.20;;
6101;SDS011;3081;50.584;7.032;2022-08-01T07:23:34;15.83;;;6.60;;
6101;SDS011;3081;50.584;7.032;2022-08-01T07:26:02;15.00;;;6.37;;
6101;SDS011;3081;50.584;7.032;2022-08-01T07:28:30;15.93;;;7.13;;
6101;SDS011;3081;50.584;7.032;2022-08-01T07:30:57;14.13;;;6.80;;
6101;SDS011;3081;50.584;7.032;2022-08-01T07:33:24;14.20;;;7.43;;
6101;SDS011;3081;50.584;7.032;2022-08-01T07:35:52;14.40;;;6.90;;
6101;SDS011;3081;50.584;7.032;2022-08-01T07:38:19;17.43;;;6.60;;
6101;SDS011;3081;50.584;7.032;2022-08-01T07:40:46;13.57;;;6.37;;
6101;SDS011;3081;50.584;7.032;2022-08-01T07:43:13;17.17;;;6.37;;
6101;SDS011;3081;50.584;7.032;2022-08-01T07:45:40;16.13;;;7.17;;
6101;SDS011;3081;50.584;7.032;2022-08-01T07:48:07;14.97;;;6.67;;
6101;SDS011;3081;50.584;7.032;2022-08-01T07:50:34;20.13;;;6.83;;
6101;SDS011;3081;50.584;7.032;2022-08-01T07:53:03;14.10;;;7.00;;
6101;SDS011;3081;50.584;7.032;2022-08-01T07:55:30;14.90;;;6.50;;
6101;SDS011;3081;50.584;7.032;2022-08-01T07:57:57;12.60;;;6.30;;
6101;SDS011;3081;50.584;7.032;2022-08-01T08:00:24;15.07;;;6.83;;
6101;SDS011;3081;50.584;7.032;2022-08-01T08:02:52;18.17;;;7.00;;
6101;SDS011;3081;50.584;7.032;2022-08-01T08:05:19;13.60;;;6.67;;
6101;SDS011;3081;50.584;7.032;2022-08-01T08:07:47;15.37;;;7.07;;
6101;SDS011;3081;50.584;7.032;2022-08-01T08:10:15;15.40;;;7.30;;
6101;SDS011;3081;50.584;7.032;2022-08-01T08:12:42;14.93;;;6.23;;
6101;SDS011;3081;50.584;7.032;2022-08-01T08:15:11;15.10;;;5.90;;
6101;SDS011;3081;50.584;7.032;2022-08-01T08:17:38;17.57;;;5.90;;
6101;SDS011;3081;50.584;7.032;2022-08-01T08:20:06;13.90;;;7.00;;
6101;SDS011;3081;50.584;7.032;2022-08-01T08:22:33;13.97;;;6.97;;
6101;SDS011;3081;50.584;7.032;2022-08-01T08:25:00;16.70;;;6.40;;
6101;SDS011;3081;50.584;7.032;2022-08-01T08:27:28;15.63;;;6.27;;
6101;SDS011;3081;50.584;7.032;2022-08-01T08:29:56;15.47;;;7.07;;
6101;SDS011;3081;50.584;7.032;2022-08-01T08:32:23;13.53;;;6.43;;
6101;SDS011;3081;50.584;7.032;2022-08-01T08:34:50;16.70;;;7.50;;
6101;SDS011;3081;50.584;7.032;2022-08-01T08:37:17;14.70;;;6.87;;
6101;SDS011;3081;50.584;7.032;2022-08-01T08:39:44;16.63;;;6.57;;
6101;SDS011;3081;50.584;7.032;2022-08-01T08:42:11;16.50;;;6.90;;
6101;SDS011;3081;50.584;7.032;2022-08-01T08:44:41;13.77;;;6.33;;
6101;SDS011;3081;50.584;7.032;2022-08-01T08:47:08;13.63;;;6.03;;
6101;SDS011;3081;50.584;7.032;2022-08-01T08:49:37;15.60;;;7.17;;
6101;SDS011;3081;50.584;7.032;2022-08-01T08:52:05;18.47;;;7.67;;
6101;SDS011;3081;50.584;7.032;2022-08-01T08:54:33;15.57;;;7.37;;
6101;SDS011;3081;50.584;7.032;2022-08-01T08:57:02;21.87;;;7.50;;
6101;SDS011;3081;50.584;7.032;2022-08-01T08:59:29;16.50;;;7.47;;
6101;SDS011;3081;50.584;7.032;2022-08-01T09:01:59;22.03;;;8.30;;
6101;SDS011;3081;50.584;7.032;2022-08-01T09:04:26;21.87;;;8.97;;
6101;SDS011;3081;50.584;7.032;2022-08-01T09:06:53;16.93;;;7.70;;
6101;SDS011;3081;50.584;7.032;2022-08-01T09:09:20;16.60;;;8.87;;
6101;SDS011;3081;50.584;7.032;2022-08-01T09:11:48;18.00;;;8.20;;
6101;SDS011;3081;50.584;7.032;2022-08-01T09:14:16;15.90;;;7.63;;
6101;SDS011;3081;50.584;7.032;2022-08-01T09:17:00;17.40;;;9.30;;
6101;SDS011;3081;50.584;7.032;2022-08-01T09:19:34;17.13;;;8.93;;
6101;SDS011;3081;50.584;7.032;2022-08-01T09:22:03;19.17;;;8.30;;
6101;SDS011;3081;50.584;7.032;2022-08-01T09:24:32;15.70;;;7.33;;
6101;SDS011;3081;50.584;7.032;2022-08-01T09:27:00;15.97;;;7.90;;
6101;SDS011;3081;50.584;7.032;2022-08-01T09:29:41;16.50;;;8.27;;
6101;SDS011;3081;50.584;7.032;2022-08-01T09:32:11;19.27;;;8.53;;
6101;SDS011;3081;50.584;7.032;2022-08-01T09:34:38;15.60;;;7.70;;
6101;SDS011;3081;50.584;7.032;2022-08-01T09:37:05;16.47;;;7.10;;
6101;SDS011;3081;50.584;7.032;2022-08-01T09:39:32;16.40;;;8.23;;
6101;SDS011;3081;50.584;7.032;2022-08-01T09:42:02;19.10;;;7.60;;
6101;SDS011;3081;50.584;7.032;2022-08-01T09:44:45;19.00;;;7.53;;
6101;SDS011;3081;50.584;7.032;2022-08-01T09:47:13;18.80;;;8.80;;
6101;SDS011;3081;50.584;7.032;2022-08-01T09:49:43;16.70;;;8.50;;
6101;SDS011;3081;50.584;7.032;2022-08-01T09:52:11;17.30;;;8.33;;
6101;SDS011;3081;50.584;7.032;2022-08-01T09:54:40;17.17;;;8.37;;
6101;SDS011;3081;50.584;7.032;2022-08-01T09:57:09;17.67;;;8.80;;
6101;SDS011;3081;50.584;7.032;2022-08-01T09:59:39;16.30;;;7.93;;
6101;SDS011;3081;50.584;7.032;2022-08-01T10:02:07;15.40;;;7.77;;
6101;SDS011;3081;50.584;7.032;2022-08-01T10:04:45;15.80;;;7.20;;
6101;SDS011;3081;50.584;7.032;2022-08-01T10:07:12;17.80;;;7.90;;
6101;SDS011;3081;50.584;7.032;2022-08-01T10:09:41;16.47;;;7.73;;
6101;SDS011;3081;50.584;7.032;2022-08-01T10:12:09;20.83;;;7.17;;
6101;SDS011;3081;50.584;7.032;2022-08-01T10:14:37;16.80;;;7.60;;
6101;SDS011;3081;50.584;7.032;2022-08-01T10:17:06;13.87;;;6.10;;
6101;SDS011;3081;50.584;7.032;2022-08-01T10:19:35;15.80;;;5.97;;
6101;SDS011;3081;50.584;7.032;2022-08-01T10:22:07;14.33;;;5.57;;
6101;SDS011;3081;50.584;7.032;2022-08-01T10:24:36;11.70;;;5.10;;
6101;SDS011;3081;50.584;7.032;2022-08-01T10:27:05;11.33;;;4.70;;
6101;SDS011;3081;50.584;7.032;2022-08-01T10:29:36;15.13;;;5.43;;
6101;SDS011;3081;50.584;7.032;2022-08-01T10:32:06;13.83;;;6.40;;
6101;SDS011;3081;50.584;7.032;2022-08-01T10:34:34;14.00;;;5.27;;
6101;SDS011;3081;50.584;7.032;2022-08-01T10:37:02;12.87;;;4.83;;
6101;SDS011;3081;50.584;7.032;2022-08-01T10:39:31;13.30;;;5.43;;
6101;SDS011;3081;50.584;7.032;2022-08-01T10:41:59;14.20;;;5.87;;
6101;SDS011;3081;50.584;7.032;2022-08-01T10:44:27;14.97;;;6.53;;
6101;SDS011;3081;50.584;7.032;2022-08-01T10:46:57;13.90;;;6.17;;
6101;SDS011;3081;50.584;7.032;2022-08-01T10:49:30;13.90;;;5.87;;
6101;SDS011;3081;50.584;7.032;2022-08-01T10:52:02;12.07;;;5.20;;
6101;SDS011;3081;50.584;7.032;2022-08-01T10:54:31;15.57;;;5.60;;
6101;SDS011;3081;50.584;7.032;2022-08-01T10:57:05;16.67;;;5.70;;
6101;SDS011;3081;50.584;7.032;2022-08-01T10:59:33;14.70;;;5.53;;
6101;SDS011;3081;50.584;7.032;2022-08-01T11:02:05;12.77;;;4.83;;
6101;SDS011;3081;50.584;7.032;2022-08-01T11:04:34;13.03;;;5.60;;
6101;SDS011;3081;50.584;7.032;2022-08-01T11:07:11;11.80;;;5.20;;
6101;SDS011;3081;50.584;7.032;2022-08-01T11:09:45;13.40;;;5.33;;
6101;SDS011;3081;50.584;7.032;2022-08-01T11:12:13;16.20;;;5.40;;
6101;SDS011;3081;50.584;7.032;2022-08-01T11:17:54;11.83;;;4.60;;
6101;SDS011;3081;50.584;7.032;2022-08-01T11:20:22;11.30;;;4.70;;
6101;SDS011;3081;50.584;7.032;2022-08-01T11:28:45;12.47;;;5.60;;
6101;SDS011;3081;50.584;7.032;2022-08-01T11:31:33;12.97;;;5.40;;
6101;SDS011;3081;50.584;7.032;2022-08-01T11:34:00;14.67;;;5.37;;
6101;SDS011;3081;50.584;7.032;2022-08-01T11:36:28;14.97;;;5.47;;
6101;SDS011;3081;50.584;7.032;2022-08-01T11:39:14;14.30;;;5.83;;
6101;SDS011;3081;50.584;7.032;2022-08-01T11:41:47;15.27;;;5.87;;
6101;SDS011;3081;50.584;7.032;2022-08-01T11:44:19;13.90;;;5.60;;
6101;SDS011;3081;50.584;7.032;2022-08-01T11:47:00;18.57;;;6.03;;
6101;SDS011;3081;50.584;7.032;2022-08-01T11:49:33;12.90;;;5.00;;
6101;SDS011;3081;50.584;7.032;2022-08-01T11:52:11;14.40;;;6.27;;
6101;SDS011;3081;50.584;7.032;2022-08-01T11:54:40;15.97;;;7.07;;
6101;SDS011;3081;50.584;7.032;2022-08-01T11:57:10;14.90;;;5.97;;
6101;SDS011;3081;50.584;7.032;2022-08-01T11:59:39;15.50;;;6.33;;
6101;SDS011;3081;50.584;7.032;2022-08-01T12:02:21;12.37;;;5.83;;
6101;SDS011;3081;50.584;7.032;2022-08-01T12:04:49;15.97;;;5.30;;
6101;SDS011;3081;50.584;7.032;2022-08-01T12:07:18;14.90;;;5.10;;
6101;SDS011;3081;50.584;7.032;2022-08-01T12:09:45;15.23;;;6.30;;
6101;SDS011;3081;50.584;7.032;2022-08-01T12:12:17;19.13;;;7.93;;
6101;SDS011;3081;50.584;7.032;2022-08-01T12:14:45;17.03;;;7.77;;
6101;SDS011;3081;50.584;7.032;2022-08-01T12:17:20;18.03;;;8.73;;
6101;SDS011;3081;50.584;7.032;2022-08-01T12:19:54;16.40;;;8.27;;
6101;SDS011;3081;50.584;7.032;2022-08-01T12:22:22;14.33;;;7.43;;
6101;SDS011;3081;50.584;7.032;2022-08-01T12:24:50;15.13;;;7.33;;
6101;SDS011;3081;50.584;7.032;2022-08-01T12:27:26;15.30;;;7.73;;
6101;SDS011;3081;50.584;7.032;2022-08-01T12:29:54;16.63;;;8.13;;
6101;SDS011;3081;50.584;7.032;2022-08-01T12:32:26;18.07;;;8.33;;
6101;SDS011;3081;50.584;7.032;2022-08-01T12:34:56;14.60;;;7.20;;
6101;SDS011;3081;50.584;7.032;2022-08-01T12:37:26;16.57;;;7.70;;
6101;SDS011;3081;50.584;7.032;2022-08-01T12:39:53;16.47;;;6.07;;
6101;SDS011;3081;50.584;7.032;2022-08-01T12:42:20;14.67;;;6.20;;
6101;SDS011;3081;50.584;7.032;2022-08-01T12:44:50;13.47;;;5.23;;
6101;SDS011;3081;50.584;7.032;2022-08-01T12:47:18;13.27;;;5.83;;
6101;SDS011;3081;50.584;7.032;2022-08-01T12:49:46;13.80;;;5.93;;
6101;SDS011;3081;50.584;7.032;2022-08-01T12:52:14;13.80;;;5.80;;
6101;SDS011;3081;50.584;7.032;2022-08-01T12:54:59;12.97;;;5.50;;
6101;SDS011;3081;50.584;7.032;2022-08-01T12:57:31;12.90;;;5.53;;
6101;SDS011;3081;50.584;7.032;2022-08-01T13:00:07;15.07;;;6.30;;
6101;SDS011;3081;50.584;7.032;2022-08-01T13:02:45;13.00;;;5.40;;
6101;SDS011;3081;50.584;7.032;2022-08-01T13:05:14;18.03;;;5.80;;
6101;SDS011;3081;50.584;7.032;2022-08-01T13:07:46;16.30;;;7.40;;
6101;SDS011;3081;50.584;7.032;2022-08-01T13:10:15;15.53;;;7.00;;
6101;SDS011;3081;50.584;7.032;2022-08-01T13:12:51;16.50;;;6.80;;
6101;SDS011;3081;50.584;7.032;2022-08-01T13:15:25;14.70;;;5.63;;
6101;SDS011;3081;50.584;7.032;2022-08-01T13:17:56;13.87;;;5.63;;
6101;SDS011;3081;50.584;7.032;2022-08-01T13:20:25;13.83;;;5.87;;
6101;SDS011;3081;50.584;7.032;2022-08-01T13:22:53;14.10;;;5.70;;
6101;SDS011;3081;50.584;7.032;2022-08-01T13:25:21;14.27;;;6.63;;
6101;SDS011;3081;50.584;7.032;2022-08-01T13:27:48;14.00;;;6.30;;
6101;SDS011;3081;50.584;7.032;2022-08-01T13:30:16;14.23;;;6.37;;
6101;SDS011;3081;50.584;7.032;2022-08-01T13:32:56;17.17;;;7.27;;
6101;SDS011;3081;50.584;7.032;2022-08-01T13:35:24;24.03;;;6.97;;
6101;SDS011;3081;50.584;7.032;2022-08-01T13:37:51;14.20;;;5.50;;
6101;SDS011;3081;50.584;7.032;2022-08-01T13:40:23;13.80;;;5.83;;
6101;SDS011;3081;50.584;7.032;2022-08-01T13:42:51;17.10;;;6.27;;
6101;SDS011;3081;50.584;7.032;2022-08-01T13:45:18;14.07;;;6.37;;
6101;SDS011;3081;50.584;7.032;2022-08-01T13:47:47;14.27;;;6.67;;
6101;SDS011;3081;50.584;7.032;2022-08-01T13:50:14;17.37;;;6.40;;
6101;SDS011;3081;50.584;7.032;2022-08-01T13:52:41;17.17;;;6.30;;
6101;SDS011;3081;50.584;7.032;2022-08-01T13:55:08;19.37;;;8.10;;
6101;SDS011;3081;50.584;7.032;2022-08-01T13:57:35;16.60;;;7.83;;
6101;SDS011;3081;50.584;7.032;2022-08-01T14:00:02;15.43;;;7.80;;
6101;SDS011;3081;50.584;7.032;2022-08-01T14:02:30;16.93;;;7.23;;
6101;SDS011;3081;50.584;7.032;2022-08-01T14:04:59;17.63;;;6.43;;
6101;SDS011;3081;50.584;7.032;2022-08-01T14:07:26;15.77;;;7.00;;
6101;SDS011;3081;50.584;7.032;2022-08-01T14:09:53;16.07;;;6.60;;
6101;SDS011;3081;50.584;7.032;2022-08-01T14:12:20;15.03;;;6.60;;
6101;SDS011;3081;50.584;7.032;2022-08-01T14:14:48;15.00;;;6.00;;
6101;SDS011;3081;50.584;7.032;2022-08-01T14:17:15;14.40;;;5.80;;
6101;SDS011;3081;50.584;7.032;2022-08-01T14:19:42;14.00;;;5.40;;
6101;SDS011;3081;50.584;7.032;2022-08-01T14:22:10;14.00;;;5.57;;
6101;SDS011;3081;50.584;7.032;2022-08-01T14:24:37;12.97;;;5.40;;
6101;SDS011;3081;50.584;7.032;2022-08-01T14:27:04;14.13;;;5.67;;
6101;SDS011;3081;50.584;7.032;2022-08-01T14:29:31;17.50;;;5.77;;
6101;SDS011;3081;50.584;7.032;2022-08-01T14:31:58;20.00;;;6.43;;
6101;SDS011;3081;50.584;7.032;2022-08-01T14:34:25;14.17;;;5.30;;
6101;SDS011;3081;50.584;7.032;2022-08-01T14:36:52;16.70;;;5.03;;
6101;SDS011;3081;50.584;7.032;2022-08-01T14:39:21;12.77;;;4.40;;
6101;SDS011;3081;50.584;7.032;2022-08-01T14:41:48;11.20;;;3.50;;
6101;SDS011;3081;50.584;7.032;2022-08-01T14:44:14;12.47;;;4.07;;
6101;SDS011;3081;50.584;7.032;2022-08-01T14:46:42;11.93;;;4.13;;
6101;SDS011;3081;50.584;7.032;2022-08-01T14:49:09;13.30;;;3.90;;
6101;SDS011;3081;50.584;7.032;2022-08-01T14:51:36;16.70;;;4.93;;
6101;SDS011;3081;50.584;7.032;2022-08-01T14:54:04;12.50;;;4.40;;
6101;SDS011;3081;50.584;7.032;2022-08-01T14:56:32;13.20;;;3.90;;
6101;SDS011;3081;50.584;7.032;2022-08-01T14:58:59;12.47;;;3.80;;
6101;SDS011;3081;50.584;7.032;2022-08-01T15:01:26;12.47;;;3.90;;
6101;SDS011;3081;50.584;7.032;2022-08-01T15:03:53;12.70;;;3.87;;
6101;SDS011;3081;50.584;7.032;2022-08-01T15:06:21;17.53;;;4.37;;
6101;SDS011;3081;50.584;7.032;2022-08-01T15:08:48;12.60;;;4.00;;
6101;SDS011;3081;50.584;7.032;2022-08-01T15:11:14;12.37;;;3.67;;
6101;SDS011;3081;50.584;7.032;2022-08-01T15:13:43;12.00;;;3.90;;
6101;SDS011;3081;50.584;7.032;2022-08-01T15:16:10;14.70;;;3.83;;
6101;SDS011;3081;50.584;7.032;2022-08-01T15:18:37;12.80;;;3.70;;
6101;SDS011;3081;50.584;7.032;2022-08-01T15:21:04;13.53;;;4.63;;
6101;SDS011;3081;50.584;7.032;2022-08-01T15:23:31;13.10;;;4.30;;
6101;SDS011;3081;50.584;7.032;2022-08-01T15:25:58;13.00;;;3.80;;
6101;SDS011;3081;50.584;7.032;2022-08-01T15:28:25;13.93;;;3.80;;